sensor_id;sensor_type;location;lat;lon;timestamp;pressure;altitude;pressure_sealevel;temperature;humidity
9855;BME280;4966;48.112;9.282;2023-02-23T00:01:38;94357.06;;;7.59;76.63
9855;BME280;4966;48.112;9.282;2023-02-23T00:04:04;94360.53;;;7.68;75.69
9855;BME280;4966;48.112;9.282;2023-02-23T00:06:31;94357.06;;;7.59;75.61
9855;BME280;4966;48.112;9.282;2023-02-23T00:08:57;94360.91;;;7.58;75.90
9855;BME280;4966;48.112;9.282;2023-02-23T00:11:26;94355.13;;;7.68;75.66
9855;BME280;4966;48.112;9.282;2023-02-23T00:13:53;94362.88;;;7.49;76.62
9855;BME280;4966;48.112;9.282;2023-02-23T00:16:21;94355.22;;;7.51;76.86
9855;BME280;4966;48.112;9.282;2023-02-23T00:18:51;94355.78;;;7.65;76.88
9855;BME280;4966;48.112;9.282;2023-02-23T00:21:22;94359.06;;;7.50;77.56
9855;BME280;4966;48.112;9.282;2023-02-23T00:23:53;94347.41;;;7.49;78.02
9855;BME280;4966;48.112;9.282;2023-02-23T00:26:22;94354.28;;;7.46;78.00
9855;BME280;4966;48.112;9.282;2023-02-23T00:28:48;94351.56;;;7.46;78.57
9855;BME280;4966;48.112;9.282;2023-02-23T00:31:15;94353.81;;;7.44;78.63
9855;BME280;4966;48.112;9.282;2023-02-23T00:33:41;94356.28;;;7.29;79.41
9855;BME280;4966;48.112;9.282;2023-02-23T00:36:10;94349.44;;;7.31;79.64
9855;BME280;4966;48.112;9.282;2023-02-23T00:38:37;94354.38;;;7.29;80.04
9855;BME280;4966;48.112;9.282;2023-02-23T00:41:09;94353.09;;;7.27;80.30
9855;BME280;4966;48.112;9.282;2023-02-23T00:43:37;94358.78;;;7.42;80.21
9855;BME280;4966;48.112;9.282;2023-02-23T00:46:03;94352.94;;;7.61;79.98
9855;BME280;4966;48.112;9.282;2023-02-23T00:48:32;94351.09;;;7.44;80.85
9855;BME280;4966;48.112;9.282;2023-02-23T00:51:02;94351.00;;;7.32;81.56
9855;BME280;4966;48.112;9.282;2023-02-23T00:53:27;94355.22;;;7.51;81.19
9855;BME280;4966;48.112;9.282;2023-02-23T00:55:54;94347.78;;;7.39;81.64
9855;BME280;4966;48.112;9.282;2023-02-23T00:58:21;94351.25;;;7.48;80.99
9855;BME280;4966;48.112;9.282;2023-02-23T01:00:46;94349.25;;;7.36;81.14
9855;BME280;4966;48.112;9.282;2023-02-23T01:03:11;94350.09;;;7.19;82.12
9855;BME280;4966;48.112;9.282;2023-02-23T01:05:37;94343.63;;;7.03;83.20
9855;BME280;4966;48.112;9.282;2023-02-23T01:08:02;94354.16;;;7.05;83.15
9855;BME280;4966;48.112;9.282;2023-02-23T01:10:28;94349.22;;;7.07;83.51
9855;BME280;4966;48.112;9.282;2023-02-23T01:12:54;94353.00;;;7.14;83.66
9855;BME280;4966;48.112;9.282;2023-02-23T01:15:19;94349.03;;;7.12;84.02
9855;BME280;4966;48.112;9.282;2023-02-23T01:17:45;94352.53;;;7.12;84.38
9855;BME280;4966;48.112;9.282;2023-02-23T01:20:14;94351.06;;;7.15;84.26
9855;BME280;4966;48.112;9.282;2023-02-23T01:22:46;94346.44;;;7.24;84.18
9855;BME280;4966;48.112;9.282;2023-02-23T01:25:12;94352.13;;;7.31;83.95
9855;BME280;4966;48.112;9.282;2023-02-23T01:27:39;94353.69;;;7.41;84.15
9855;BME280;4966;48.112;9.282;2023-02-23T01:30:06;94345.97;;;7.22;84.73
9855;BME280;4966;48.112;9.282;2023-02-23T01:32:34;94354.09;;;7.13;85.76
9855;BME280;4966;48.112;9.282;2023-02-23T01:35:02;94350.22;;;7.32;84.88
9855;BME280;4966;48.112;9.282;2023-02-23T01:37:28;94347.22;;;7.24;85.39
9855;BME280;4966;48.112;9.282;2023-02-23T01:39:54;94351.63;;;7.38;85.28
9855;BME280;4966;48.112;9.282;2023-02-23T01:42:19;94338.41;;;7.36;85.29
9855;BME280;4966;48.112;9.282;2023-02-23T01:47:13;94342.75;;;7.29;86.17
9855;BME280;4966;48.112;9.282;2023-02-23T01:49:38;94336.19;;;7.38;86.26
9855;BME280;4966;48.112;9.282;2023-02-23T01:52:08;94338.09;;;7.38;86.11
9855;BME280;4966;48.112;9.282;2023-02-23T01:54:38;94335.81;;;7.49;85.81
9855;BME280;4966;48.112;9.282;2023-02-23T01:57:05;94328.81;;;7.48;85.93
9855;BME280;4966;48.112;9.282;2023-02-23T01:59:43;94338.28;;;7.33;86.41
9855;BME280;4966;48.112;9.282;2023-02-23T02:02:09;94330.75;;;7.47;86.20
9855;BME280;4966;48.112;9.282;2023-02-23T02:04:37;94330.38;;;7.49;86.40
9855;BME280;4966;48.112;9.282;2023-02-23T02:07:18;94326.75;;;7.44;86.39
9855;BME280;4966;48.112;9.282;2023-02-23T02:09:46;94333.38;;;7.56;85.73
9855;BME280;4966;48.112;9.282;2023-02-23T02:12:30;94326.81;;;7.36;86.70
9855;BME280;4966;48.112;9.282;2023-02-23T02:14:57;94334.59;;;7.37;86.92
9855;BME280;4966;48.112;9.282;2023-02-23T02:26:32;94323.25;;;7.44;87.45
9855;BME280;4966;48.112;9.282;2023-02-23T02:40:35;94310.50;;;7.44;88.02
9855;BME280;4966;48.112;9.282;2023-02-23T02:43:15;94313.59;;;7.64;87.69
9855;BME280;4966;48.112;9.282;2023-02-23T02:45:53;94307.75;;;7.53;88.00
9855;BME280;4966;48.112;9.282;2023-02-23T02:51:13;94307.56;;;7.58;88.01
9855;BME280;4966;48.112;9.282;2023-02-23T02:56:09;94315.13;;;7.74;88.04
9855;BME280;4966;48.112;9.282;2023-02-23T02:58:36;94317.56;;;7.66;88.08
9855;BME280;4966;48.112;9.282;2023-02-23T03:01:12;94312.50;;;7.56;88.63
9855;BME280;4966;48.112;9.282;2023-02-23T03:03:58;94310.63;;;7.57;88.95
9855;BME280;4966;48.112;9.282;2023-02-23T03:06:45;94313.06;;;7.71;88.51
9855;BME280;4966;48.112;9.282;2023-02-23T03:09:46;94310.97;;;7.76;88.06
9855;BME280;4966;48.112;9.282;2023-02-23T03:16:21;94309.28;;;7.63;88.65
9855;BME280;4966;48.112;9.282;2023-02-23T03:19:18;94313.13;;;7.62;88.90
9855;BME280;4966;48.112;9.282;2023-02-23T03:22:25;94316.44;;;7.67;88.95
9855;BME280;4966;48.112;9.282;2023-02-23T03:28:20;94311.50;;;7.70;88.38
9855;BME280;4966;48.112;9.282;2023-02-23T03:31:31;94311.72;;;7.56;88.80
9855;BME280;4966;48.112;9.282;2023-02-23T03:34:39;94317.59;;;7.58;88.88
9855;BME280;4966;48.112;9.282;2023-02-23T03:37:27;94310.44;;;7.62;89.10
9855;BME280;4966;48.112;9.282;2023-02-23T03:40:22;94311.41;;;7.57;89.41
9855;BME280;4966;48.112;9.282;2023-02-23T03:43:12;94312.13;;;7.45;90.22
9855;BME280;4966;48.112;9.282;2023-02-23T03:46:01;94311.25;;;7.54;89.70
9855;BME280;4966;48.112;9.282;2023-02-23T03:48:48;94317.03;;;7.73;89.40
9855;BME280;4966;48.112;9.282;2023-02-23T03:51:34;94322.00;;;7.71;89.23
9855;BME280;4966;48.112;9.282;2023-02-23T03:54:30;94313.88;;;7.71;89.45
9855;BME280;4966;48.112;9.282;2023-02-23T03:57:18;94319.16;;;7.67;90.09
9855;BME280;4966;48.112;9.282;2023-02-23T04:00:08;94328.06;;;7.68;90.36
9855;BME280;4966;48.112;9.282;2023-02-23T04:02:55;94324.63;;;7.80;90.03
9855;BME280;4966;48.112;9.282;2023-02-23T04:05:42;94319.09;;;7.76;90.12
9855;BME280;4966;48.112;9.282;2023-02-23T04:08:35;94327.50;;;7.83;90.20
9855;BME280;4966;48.112;9.282;2023-02-23T04:11:34;94315.31;;;7.89;89.79
9855;BME280;4966;48.112;9.282;2023-02-23T04:14:28;94319.63;;;7.91;89.92
9855;BME280;4966;48.112;9.282;2023-02-23T04:16:56;94324.25;;;7.90;89.91
9855;BME280;4966;48.112;9.282;2023-02-23T04:19:25;94329.41;;;7.83;90.34
9855;BME280;4966;48.112;9.282;2023-02-23T04:21:51;94323.38;;;7.77;90.45
9855;BME280;4966;48.112;9.282;2023-02-23T04:24:16;94324.44;;;7.85;90.46
9855;BME280;4966;48.112;9.282;2023-02-23T04:26:42;94324.13;;;7.86;90.72
9855;BME280;4966;48.112;9.282;2023-02-23T04:29:07;94327.28;;;7.88;90.68
9855;BME280;4966;48.112;9.282;2023-02-23T04:31:34;94322.81;;;7.93;90.52
9855;BME280;4966;48.112;9.282;2023-02-23T04:33:59;94318.81;;;7.90;90.66
9855;BME280;4966;48.112;9.282;2023-02-23T04:36:24;94319.25;;;8.01;89.49
9855;BME280;4966;48.112;9.282;2023-02-23T04:38:50;94325.69;;;7.87;90.16
9855;BME280;4966;48.112;9.282;2023-02-23T04:41:16;94324.59;;;7.88;90.54
9855;BME280;4966;48.112;9.282;2023-02-23T04:43:41;94320.63;;;8.07;89.67
9855;BME280;4966;48.112;9.282;2023-02-23T04:46:07;94329.34;;;7.92;90.48
9855;BME280;4966;48.112;9.282;2023-02-23T04:48:33;94317.56;;;7.87;90.81
9855;BME280;4966;48.112;9.282;2023-02-23T04:50:58;94322.88;;;7.84;91.02
9855;BME280;4966;48.112;9.282;2023-02-23T04:53:24;94324.13;;;7.86;91.40
9855;BME280;4966;48.112;9.282;2023-02-23T04:55:51;94323.91;;;7.92;91.71
9855;BME280;4966;48.112;9.282;2023-02-23T04:58:16;94324.50;;;7.97;91.43
9855;BME280;4966;48.112;9.282;2023-02-23T05:00:41;94330.28;;;8.17;90.25
9855;BME280;4966;48.112;9.282;2023-02-23T05:03:07;94324.78;;;8.04;90.59
9855;BME280;4966;48.112;9.282;2023-02-23T05:05:33;94329.13;;;7.97;91.05
9855;BME280;4966;48.112;9.282;2023-02-23T05:07:58;94330.47;;;7.91;91.35
9855;BME280;4966;48.112;9.282;2023-02-23T05:10:23;94322.16;;;7.96;90.87
9855;BME280;4966;48.112;9.282;2023-02-23T05:12:49;94325.69;;;7.87;91.18
9855;BME280;4966;48.112;9.282;2023-02-23T05:15:14;94330.28;;;7.96;91.16
9855;BME280;4966;48.112;9.282;2023-02-23T05:17:40;94336.44;;;8.05;90.32
9855;BME280;4966;48.112;9.282;2023-02-23T05:20:07;94327.31;;;8.09;89.28
9855;BME280;4966;48.112;9.282;2023-02-23T05:22:32;94326.91;;;7.99;89.85
9855;BME280;4966;48.112;9.282;2023-02-23T05:24:58;94322.91;;;7.75;91.20
9855;BME280;4966;48.112;9.282;2023-02-23T05:27:24;94329.97;;;7.67;92.29
9855;BME280;4966;48.112;9.282;2023-02-23T05:29:49;94325.22;;;7.64;92.62
9855;BME280;4966;48.112;9.282;2023-02-23T05:32:14;94327.13;;;7.64;92.33
9855;BME280;4966;48.112;9.282;2023-02-23T05:34:40;94333.47;;;7.68;92.33
9855;BME280;4966;48.112;9.282;2023-02-23T05:37:06;94330.72;;;7.77;92.34
9855;BME280;4966;48.112;9.282;2023-02-23T05:39:31;94334.88;;;7.74;92.74
9855;BME280;4966;48.112;9.282;2023-02-23T05:41:57;94331.66;;;7.81;92.63
9855;BME280;4966;48.112;9.282;2023-02-23T05:44:22;94334.09;;;7.74;92.78
9855;BME280;4966;48.112;9.282;2023-02-23T05:46:49;94328.47;;;7.79;92.77
9855;BME280;4966;48.112;9.282;2023-02-23T05:49:14;94328.78;;;7.77;92.39
9855;BME280;4966;48.112;9.282;2023-02-23T05:51:39;94328.47;;;7.79;91.97
9855;BME280;4966;48.112;9.282;2023-02-23T05:54:05;94327.22;;;7.76;91.95
9855;BME280;4966;48.112;9.282;2023-02-23T05:56:31;94332.84;;;7.71;91.95
9855;BME280;4966;48.112;9.282;2023-02-23T05:58:57;94331.50;;;7.77;91.83
9855;BME280;4966;48.112;9.282;2023-02-23T06:01:24;94329.94;;;7.76;91.56
9855;BME280;4966;48.112;9.282;2023-02-23T06:03:50;94329.13;;;7.76;91.63
9855;BME280;4966;48.112;9.282;2023-02-23T06:06:15;94341.47;;;7.64;91.84
9855;BME280;4966;48.112;9.282;2023-02-23T06:08:41;94337.69;;;7.57;92.54
9855;BME280;4966;48.112;9.282;2023-02-23T06:11:07;94332.41;;;7.60;92.56
9855;BME280;4966;48.112;9.282;2023-02-23T06:13:33;94333.72;;;7.54;92.86
9855;BME280;4966;48.112;9.282;2023-02-23T06:15:59;94332.84;;;7.71;92.10
9855;BME280;4966;48.112;9.282;2023-02-23T06:18:25;94331.09;;;7.66;91.54
9855;BME280;4966;48.112;9.282;2023-02-23T06:20:50;94340.94;;;7.41;92.88
9855;BME280;4966;48.112;9.282;2023-02-23T06:23:16;94339.50;;;7.44;92.40
9855;BME280;4966;48.112;9.282;2023-02-23T06:25:43;94347.13;;;7.42;93.70
9855;BME280;4966;48.112;9.282;2023-02-23T06:28:08;94347.38;;;7.58;93.46
9855;BME280;4966;48.112;9.282;2023-02-23T06:30:35;94353.03;;;7.74;93.48
9855;BME280;4966;48.112;9.282;2023-02-23T06:33:00;94349.50;;;7.73;93.31
9855;BME280;4966;48.112;9.282;2023-02-23T06:35:26;94357.84;;;7.68;93.71
9855;BME280;4966;48.112;9.282;2023-02-23T06:37:52;94353.56;;;7.67;94.29
9855;BME280;4966;48.112;9.282;2023-02-23T06:40:18;94355.59;;;7.70;94.28
9855;BME280;4966;48.112;9.282;2023-02-23T06:42:43;94363.34;;;7.80;94.26
9855;BME280;4966;48.112;9.282;2023-02-23T06:45:09;94375.84;;;7.94;93.65
9855;BME280;4966;48.112;9.282;2023-02-23T06:47:35;94375.13;;;8.05;92.33
9855;BME280;4966;48.112;9.282;2023-02-23T06:50:00;94369.88;;;7.79;93.14
9855;BME280;4966;48.112;9.282;2023-02-23T06:52:27;94368.13;;;7.83;93.59
9855;BME280;4966;48.112;9.282;2023-02-23T06:54:52;94372.34;;;7.93;93.61
9855;BME280;4966;48.112;9.282;2023-02-23T06:57:18;94377.25;;;8.00;93.37
9855;BME280;4966;48.112;9.282;2023-02-23T06:59:43;94374.34;;;8.05;93.48
9855;BME280;4966;48.112;9.282;2023-02-23T07:02:12;94383.25;;;8.05;93.55
9855;BME280;4966;48.112;9.282;2023-02-23T07:04:37;94380.69;;;8.09;93.64
9855;BME280;4966;48.112;9.282;2023-02-23T07:07:03;94380.44;;;8.23;93.19
9855;BME280;4966;48.112;9.282;2023-02-23T07:09:29;94386.13;;;8.30;92.55
9855;BME280;4966;48.112;9.282;2023-02-23T07:11:54;94385.78;;;8.31;92.23
9855;BME280;4966;48.112;9.282;2023-02-23T07:14:20;94389.81;;;8.25;92.20
9855;BME280;4966;48.112;9.282;2023-02-23T07:16:46;94391.22;;;8.31;92.04
9855;BME280;4966;48.112;9.282;2023-02-23T07:19:11;94391.69;;;8.34;92.03
9855;BME280;4966;48.112;9.282;2023-02-23T07:21:36;94388.97;;;8.34;92.58
9855;BME280;4966;48.112;9.282;2023-02-23T07:24:02;94384.44;;;8.38;92.47
9855;BME280;4966;48.112;9.282;2023-02-23T07:26:30;94391.31;;;8.44;92.42
9855;BME280;4966;48.112;9.282;2023-02-23T07:28:57;94392.72;;;8.50;92.13
9855;BME280;4966;48.112;9.282;2023-02-23T07:31:23;94387.88;;;8.56;92.10
9855;BME280;4966;48.112;9.282;2023-02-23T07:33:48;94383.47;;;8.84;90.49
9855;BME280;4966;48.112;9.282;2023-02-23T07:36:13;94394.38;;;8.76;90.77
9855;BME280;4966;48.112;9.282;2023-02-23T07:38:39;94393.28;;;8.77;90.87
9855;BME280;4966;48.112;9.282;2023-02-23T07:41:05;94391.00;;;8.79;91.23
9855;BME280;4966;48.112;9.282;2023-02-23T07:43:31;94395.66;;;8.90;90.91
9855;BME280;4966;48.112;9.282;2023-02-23T07:46:00;94390.84;;;8.96;90.58
9855;BME280;4966;48.112;9.282;2023-02-23T07:48:25;94388.00;;;8.92;90.92
9855;BME280;4966;48.112;9.282;2023-02-23T07:50:51;94396.13;;;8.92;91.55
9855;BME280;4966;48.112;9.282;2023-02-23T07:53:16;94390.13;;;9.20;89.96
9855;BME280;4966;48.112;9.282;2023-02-23T07:55:42;94382.97;;;9.15;90.78
9855;BME280;4966;48.112;9.282;2023-02-23T07:58:07;94388.19;;;9.21;91.15
9855;BME280;4966;48.112;9.282;2023-02-23T08:00:34;94394.53;;;9.12;91.95
9855;BME280;4966;48.112;9.282;2023-02-23T08:03:00;94403.34;;;9.22;91.70
9855;BME280;4966;48.112;9.282;2023-02-23T08:05:27;94401.31;;;9.19;92.46
9855;BME280;4966;48.112;9.282;2023-02-23T08:07:53;94396.72;;;9.31;92.33
9855;BME280;4966;48.112;9.282;2023-02-23T08:10:20;94398.63;;;9.43;91.83
9855;BME280;4966;48.112;9.282;2023-02-23T08:12:46;94392.63;;;9.25;93.50
9855;BME280;4966;48.112;9.282;2023-02-23T08:15:11;94397.19;;;9.58;92.72
9855;BME280;4966;48.112;9.282;2023-02-23T08:17:37;94388.69;;;9.72;91.61
9855;BME280;4966;48.112;9.282;2023-02-23T08:20:04;94390.84;;;9.78;91.81
9855;BME280;4966;48.112;9.282;2023-02-23T08:22:30;94389.59;;;9.88;91.68
9855;BME280;4966;48.112;9.282;2023-02-23T08:24:55;94390.84;;;9.91;91.99
9855;BME280;4966;48.112;9.282;2023-02-23T08:27:20;94382.91;;;10.10;90.45
9855;BME280;4966;48.112;9.282;2023-02-23T08:29:46;94389.81;;;10.20;90.31
9855;BME280;4966;48.112;9.282;2023-02-23T08:32:11;94391.06;;;10.22;90.56
9855;BME280;4966;48.112;9.282;2023-02-23T08:34:41;94389.00;;;10.32;90.21
9855;BME280;4966;48.112;9.282;2023-02-23T08:37:07;94388.16;;;10.56;88.85
9855;BME280;4966;48.112;9.282;2023-02-23T08:39:33;94385.44;;;10.56;88.42
9855;BME280;4966;48.112;9.282;2023-02-23T08:41:58;94389.78;;;10.45;88.35
9855;BME280;4966;48.112;9.282;2023-02-23T08:44:24;94392.69;;;10.64;87.18
9855;BME280;4966;48.112;9.282;2023-02-23T08:46:49;94393.06;;;10.50;88.22
9855;BME280;4966;48.112;9.282;2023-02-23T08:49:15;94389.63;;;10.53;87.99
9855;BME280;4966;48.112;9.282;2023-02-23T08:51:41;94394.06;;;10.58;86.91
9855;BME280;4966;48.112;9.282;2023-02-23T08:54:07;94396.47;;;10.47;88.42
9855;BME280;4966;48.112;9.282;2023-02-23T08:56:38;94390.25;;;10.22;89.27
9855;BME280;4966;48.112;9.282;2023-02-23T08:59:03;94402.69;;;10.48;88.78
9855;BME280;4966;48.112;9.282;2023-02-23T09:01:29;94397.38;;;10.51;89.09
9855;BME280;4966;48.112;9.282;2023-02-23T09:03:54;94400.84;;;10.64;87.82
9855;BME280;4966;48.112;9.282;2023-02-23T09:06:21;94387.97;;;10.77;87.13
9855;BME280;4966;48.112;9.282;2023-02-23T09:08:47;94406.00;;;10.81;87.15
9855;BME280;4966;48.112;9.282;2023-02-23T09:11:12;94398.56;;;10.66;88.27
9855;BME280;4966;48.112;9.282;2023-02-23T09:13:37;94401.94;;;10.75;86.61
9855;BME280;4966;48.112;9.282;2023-02-23T09:16:03;94399.06;;;10.84;86.46
9855;BME280;4966;48.112;9.282;2023-02-23T09:18:29;94400.88;;;10.52;88.17
9855;BME280;4966;48.112;9.282;2023-02-23T09:20:56;94400.38;;;10.62;88.19
9855;BME280;4966;48.112;9.282;2023-02-23T09:23:22;94391.25;;;10.54;88.18
9855;BME280;4966;48.112;9.282;2023-02-23T09:25:48;94396.84;;;10.74;86.44
9855;BME280;4966;48.112;9.282;2023-02-23T09:28:16;94399.44;;;10.82;86.72
9855;BME280;4966;48.112;9.282;2023-02-23T09:30:43;94403.03;;;10.86;86.99
9855;BME280;4966;48.112;9.282;2023-02-23T09:33:09;94403.50;;;10.36;89.50
9855;BME280;4966;48.112;9.282;2023-02-23T09:35:35;94398.56;;;10.66;88.39
9855;BME280;4966;48.112;9.282;2023-02-23T09:38:02;94401.66;;;10.52;89.48
9855;BME280;4966;48.112;9.282;2023-02-23T09:40:34;94402.91;;;10.55;88.80
9855;BME280;4966;48.112;9.282;2023-02-23T09:43:25;94397.22;;;11.16;85.24
9855;BME280;4966;48.112;9.282;2023-02-23T09:46:02;94398.84;;;11.49;83.38
9855;BME280;4966;48.112;9.282;2023-02-23T09:48:32;94404.41;;;11.53;82.73
9855;BME280;4966;48.112;9.282;2023-02-23T09:50:59;94401.69;;;12.00;80.11
9855;BME280;4966;48.112;9.282;2023-02-23T09:53:39;94399.38;;;11.23;82.30
9855;BME280;4966;48.112;9.282;2023-02-23T09:56:21;94401.66;;;11.53;82.24
9855;BME280;4966;48.112;9.282;2023-02-23T09:58:49;94405.66;;;11.27;84.07
9855;BME280;4966;48.112;9.282;2023-02-23T10:04:11;94407.25;;;11.88;81.15
9855;BME280;4966;48.112;9.282;2023-02-23T10:06:41;94403.94;;;11.82;82.08
9855;BME280;4966;48.112;9.282;2023-02-23T10:09:17;94404.63;;;11.32;82.66
9855;BME280;4966;48.112;9.282;2023-02-23T10:14:44;94399.19;;;11.32;84.60
9855;BME280;4966;48.112;9.282;2023-02-23T10:22:23;94395.66;;;11.31;83.87
9855;BME280;4966;48.112;9.282;2023-02-23T10:24:55;94393.22;;;11.58;82.54
9855;BME280;4966;48.112;9.282;2023-02-23T10:27:29;94395.25;;;11.45;82.58
9855;BME280;4966;48.112;9.282;2023-02-23T10:29:58;94401.25;;;11.66;83.62
9855;BME280;4966;48.112;9.282;2023-02-23T10:32:40;94397.38;;;11.83;80.73
9855;BME280;4966;48.112;9.282;2023-02-23T10:35:15;94399.75;;;12.17;80.65
9855;BME280;4966;48.112;9.282;2023-02-23T10:37:41;94399.75;;;12.01;80.99
9855;BME280;4966;48.112;9.282;2023-02-23T10:40:14;94401.25;;;11.98;80.82
9855;BME280;4966;48.112;9.282;2023-02-23T10:42:41;94398.88;;;11.81;81.42
9855;BME280;4966;48.112;9.282;2023-02-23T10:45:13;94399.47;;;11.42;83.56
9855;BME280;4966;48.112;9.282;2023-02-23T10:47:49;94396.47;;;12.27;79.39
9855;BME280;4966;48.112;9.282;2023-02-23T10:50:16;94389.41;;;12.61;77.41
9855;BME280;4966;48.112;9.282;2023-02-23T10:52:45;94392.28;;;13.27;74.58
9855;BME280;4966;48.112;9.282;2023-02-23T10:55:27;94392.44;;;13.57;71.81
9855;BME280;4966;48.112;9.282;2023-02-23T11:00:28;94397.28;;;13.44;70.64
9855;BME280;4966;48.112;9.282;2023-02-23T11:03:00;94392.66;;;12.67;71.21
9855;BME280;4966;48.112;9.282;2023-02-23T11:08:18;94387.94;;;13.26;69.51
9855;BME280;4966;48.112;9.282;2023-02-23T11:13:22;94382.38;;;12.99;69.38
9855;BME280;4966;48.112;9.282;2023-02-23T11:15:48;94381.94;;;13.59;66.51
9855;BME280;4966;48.112;9.282;2023-02-23T11:18:24;94373.34;;;13.83;65.93
9855;BME280;4966;48.112;9.282;2023-02-23T11:20:50;94373.69;;;14.32;64.45
9855;BME280;4966;48.112;9.282;2023-02-23T11:23:24;94373.84;;;14.42;63.35
9855;BME280;4966;48.112;9.282;2023-02-23T11:25:54;94362.72;;;14.85;62.04
9855;BME280;4966;48.112;9.282;2023-02-23T11:28:24;94364.06;;;14.68;60.85
9855;BME280;4966;48.112;9.282;2023-02-23T11:30:56;94364.50;;;14.70;61.07
9855;BME280;4966;48.112;9.282;2023-02-23T11:33:28;94357.50;;;14.19;62.15
9855;BME280;4966;48.112;9.282;2023-02-23T11:36:00;94362.66;;;14.24;62.37
9855;BME280;4966;48.112;9.282;2023-02-23T11:38:36;94361.41;;;13.69;65.36
9855;BME280;4966;48.112;9.282;2023-02-23T11:41:16;94353.63;;;13.94;64.35
9855;BME280;4966;48.112;9.282;2023-02-23T11:43:49;94352.53;;;13.98;63.34
9855;BME280;4966;48.112;9.282;2023-02-23T11:46:17;94361.28;;;14.11;62.92
9855;BME280;4966;48.112;9.282;2023-02-23T11:49:02;94355.72;;;14.57;62.41
9855;BME280;4966;48.112;9.282;2023-02-23T11:51:35;94352.09;;;14.53;61.90
9855;BME280;4966;48.112;9.282;2023-02-23T11:54:02;94339.88;;;14.74;61.59
9855;BME280;4966;48.112;9.282;2023-02-23T11:56:29;94341.25;;;14.57;60.49
9855;BME280;4966;48.112;9.282;2023-02-23T11:58:59;94336.16;;;16.12;55.26
9855;BME280;4966;48.112;9.282;2023-02-23T12:04:21;94320.53;;;18.79;46.02
9855;BME280;4966;48.112;9.282;2023-02-23T12:06:48;94320.56;;;18.58;45.89
9855;BME280;4966;48.112;9.282;2023-02-23T12:09:31;94323.25;;;16.96;50.19
9855;BME280;4966;48.112;9.282;2023-02-23T12:12:04;94330.75;;;17.03;49.39
9855;BME280;4966;48.112;9.282;2023-02-23T12:14:38;94323.31;;;17.11;49.78
9855;BME280;4966;48.112;9.282;2023-02-23T12:17:15;94320.56;;;17.11;49.05
9855;BME280;4966;48.112;9.282;2023-02-23T12:19:49;94314.28;;;16.30;52.01
9855;BME280;4966;48.112;9.282;2023-02-23T12:22:26;94308.91;;;15.85;52.42
9855;BME280;4966;48.112;9.282;2023-02-23T12:24:58;94317.88;;;16.41;52.88
9855;BME280;4966;48.112;9.282;2023-02-23T12:27:42;94309.75;;;15.97;52.51
9855;BME280;4966;48.112;9.282;2023-02-23T12:35:12;94309.66;;;15.79;52.06
9855;BME280;4966;48.112;9.282;2023-02-23T12:37:40;94298.25;;;16.39;52.14
9855;BME280;4966;48.112;9.282;2023-02-23T12:45:41;94296.41;;;16.61;51.11
9855;BME280;4966;48.112;9.282;2023-02-23T12:50:43;94296.75;;;16.45;52.19
9855;BME280;4966;48.112;9.282;2023-02-23T12:53:33;94297.38;;;16.17;52.04
9855;BME280;4966;48.112;9.282;2023-02-23T12:58:54;94288.44;;;15.72;52.97
9855;BME280;4966;48.112;9.282;2023-02-23T13:01:32;94286.47;;;16.35;50.83
9855;BME280;4966;48.112;9.282;2023-02-23T13:18:31;94277.78;;;15.19;54.03
9855;BME280;4966;48.112;9.282;2023-02-23T13:21:11;94278.19;;;15.69;53.04
9855;BME280;4966;48.112;9.282;2023-02-23T13:24:12;94276.38;;;15.39;54.54
9855;BME280;4966;48.112;9.282;2023-02-23T13:26:47;94271.66;;;15.36;54.59
9855;BME280;4966;48.112;9.282;2023-02-23T13:31:42;94271.94;;;14.53;56.25
9855;BME280;4966;48.112;9.282;2023-02-23T13:34:11;94267.25;;;14.83;55.71
9855;BME280;4966;48.112;9.282;2023-02-23T13:36:41;94270.72;;;14.80;56.19
9855;BME280;4966;48.112;9.282;2023-02-23T13:46:59;94271.38;;;15.04;54.89
9855;BME280;4966;48.112;9.282;2023-02-23T13:49:47;94277.41;;;14.83;57.20
9855;BME280;4966;48.112;9.282;2023-02-23T13:52:37;94272.78;;;13.70;64.62
9855;BME280;4966;48.112;9.282;2023-02-23T13:57:52;94273.94;;;13.69;67.79
9855;BME280;4966;48.112;9.282;2023-02-23T14:00:21;94272.69;;;14.19;68.84
9855;BME280;4966;48.112;9.282;2023-02-23T14:02:47;94266.47;;;14.86;67.36
9855;BME280;4966;48.112;9.282;2023-02-23T14:07:43;94259.69;;;15.55;64.16
9855;BME280;4966;48.112;9.282;2023-02-23T14:10:24;94267.19;;;15.62;61.07
9855;BME280;4966;48.112;9.282;2023-02-23T14:18:32;94265.69;;;14.86;58.51
9855;BME280;4966;48.112;9.282;2023-02-23T14:21:26;94258.91;;;14.73;58.80
9855;BME280;4966;48.112;9.282;2023-02-23T14:24:03;94264.97;;;14.55;59.16
9855;BME280;4966;48.112;9.282;2023-02-23T14:29:24;94253.94;;;14.18;62.27
9855;BME280;4966;48.112;9.282;2023-02-23T14:32:19;94255.94;;;14.24;64.26
9855;BME280;4966;48.112;9.282;2023-02-23T14:37:34;94249.94;;;14.76;59.80
9855;BME280;4966;48.112;9.282;2023-02-23T14:42:29;94249.38;;;14.97;58.96
9855;BME280;4966;48.112;9.282;2023-02-23T14:44:57;94245.72;;;15.23;58.93
9855;BME280;4966;48.112;9.282;2023-02-23T14:47:27;94246.69;;;15.48;60.02
9855;BME280;4966;48.112;9.282;2023-02-23T14:49:58;94246.03;;;15.62;57.75
9855;BME280;4966;48.112;9.282;2023-02-23T14:52:29;94237.78;;;15.59;57.83
9855;BME280;4966;48.112;9.282;2023-02-23T14:57:38;94235.06;;;15.62;59.49
9855;BME280;4966;48.112;9.282;2023-02-23T15:00:18;94237.28;;;15.46;59.06
9855;BME280;4966;48.112;9.282;2023-02-23T15:05:23;94246.59;;;15.34;60.12
9855;BME280;4966;48.112;9.282;2023-02-23T15:07:50;94249.25;;;15.27;61.13
9855;BME280;4966;48.112;9.282;2023-02-23T15:10:34;94246.75;;;15.07;61.20
9855;BME280;4966;48.112;9.282;2023-02-23T15:13:09;94246.78;;;14.70;60.92
9855;BME280;4966;48.112;9.282;2023-02-23T15:15:35;94256.59;;;14.44;63.83
9855;BME280;4966;48.112;9.282;2023-02-23T15:18:02;94259.66;;;14.09;64.72
9855;BME280;4966;48.112;9.282;2023-02-23T15:20:32;94259.28;;;13.80;65.11
9855;BME280;4966;48.112;9.282;2023-02-23T15:23:03;94255.69;;;13.76;65.42
9855;BME280;4966;48.112;9.282;2023-02-23T15:25:37;94265.09;;;13.79;63.28
9855;BME280;4966;48.112;9.282;2023-02-23T15:28:19;94261.56;;;13.52;65.33
9855;BME280;4966;48.112;9.282;2023-02-23T15:30:47;94258.66;;;13.18;67.26
9855;BME280;4966;48.112;9.282;2023-02-23T15:33:15;94262.97;;;12.53;63.42
9855;BME280;4966;48.112;9.282;2023-02-23T15:36:25;94276.88;;;12.09;64.43
9855;BME280;4966;48.112;9.282;2023-02-23T15:38:54;94271.41;;;11.90;66.44
9855;BME280;4966;48.112;9.282;2023-02-23T15:41:29;94285.44;;;11.41;70.85
9855;BME280;4966;48.112;9.282;2023-02-23T15:44:11;94271.69;;;10.74;75.66
9855;BME280;4966;48.112;9.282;2023-02-23T15:46:38;94277.28;;;10.65;78.09
9855;BME280;4966;48.112;9.282;2023-02-23T15:49:09;94278.84;;;10.50;81.22